Time;durP1;ratioP1;P1;durP2;ratioP2;P2;SDS_P1;SDS_P2;PMS_P1;PMS_P2;Temp;Humidity;BMP_temperature;BMP_pressure;BME280_temperature;BME280_humidity;BME280_pressure;Samples;Min_cycle;Max_cycle;Signal;HPM_P1;HPM_P2
2022/03/17 00:01:04;;;;;;;;;81.33;62.00;;;;;7.45;74.89;100333.34;4971633;28;9274;-76
2022/03/17 00:03:32;;;;;;;;;83.33;66.00;;;;;7.46;74.33;100337.72;4937254;28;9397;-76
2022/03/17 00:06:01;;;;;;;;;82.33;64.67;;;;;7.23;75.58;100341.47;4957634;28;9332;-78
2022/03/17 00:08:30;;;;;;;;;85.33;66.33;;;;;6.94;77.15;100350.22;4990282;28;9509;-77
2022/03/17 00:10:59;;;;;;;;;83.25;65.75;;;;;6.90;77.46;100348.34;4952804;28;9559;-77
2022/03/17 00:13:28;;;;;;;;;87.75;67.50;;;;;6.80;77.95;100348.09;4951675;28;9592;-76
2022/03/17 00:15:58;;;;;;;;;82.33;66.00;;;;;6.75;78.61;100343.66;4952628;28;9709;-77
2022/03/17 00:18:27;;;;;;;;;79.33;63.00;;;;;6.81;78.48;100343.81;4937226;28;9453;-75
2022/03/17 00:20:58;;;;;;;;;88.33;67.33;;;;;6.78;78.41;100356.69;4923797;28;9351;-76
2022/03/17 00:23:27;;;;;;;;;83.00;63.33;;;;;6.94;77.97;100360.59;4969016;28;9461;-77
2022/03/17 00:25:56;;;;;;;;;85.33;63.33;;;;;6.91;77.72;100358.78;4968474;28;9332;-75
2022/03/17 00:28:24;;;;;;;;;85.00;62.33;;;;;6.67;77.13;100360.69;4951553;28;9418;-78
2022/03/17 00:30:53;;;;;;;;;80.33;63.33;;;;;6.52;77.61;100355.94;4952739;28;9296;-77
2022/03/17 00:33:23;;;;;;;;;80.67;63.33;;;;;6.51;77.51;100356.78;4969167;28;9398;-76
2022/03/17 00:35:52;;;;;;;;;82.00;65.67;;;;;6.55;77.36;100356.91;4953107;28;9276;-76
2022/03/17 00:38:21;;;;;;;;;71.33;59.00;;;;;6.79;76.33;100350.69;4952987;28;9384;-78
2022/03/17 00:40:49;;;;;;;;;78.67;60.67;;;;;6.96;75.66;100354.59;4968838;28;9501;-77
2022/03/17 00:43:18;;;;;;;;;81.00;63.00;;;;;6.87;75.39;100351.75;4989845;28;9267;-77
2022/03/17 00:45:48;;;;;;;;;80.00;61.00;;;;;6.79;75.50;100355.84;4989450;28;9263;-76
2022/03/17 00:48:17;;;;;;;;;85.33;63.67;;;;;6.63;76.41;100359.72;4972229;28;9462;-76
2022/03/17 00:50:47;;;;;;;;;73.50;59.50;;;;;6.47;77.06;100362.72;4973016;28;9293;-76
2022/03/17 00:53:15;;;;;;;;;79.67;63.33;;;;;6.45;77.18;100362.66;5004920;28;9173;-76
2022/03/17 00:55:44;;;;;;;;;75.33;61.00;;;;;6.51;77.09;100364.56;4971661;28;9368;-76
2022/03/17 00:58:13;;;;;;;;;83.33;65.67;;;;;6.64;76.22;100371.84;4987365;28;9143;-75
2022/03/17 01:00:41;;;;;;;;;82.33;64.00;;;;;6.80;75.81;100367.97;4988796;28;9444;-76
2022/03/17 01:03:10;;;;;;;;;81.00;63.00;;;;;6.89;74.73;100369.94;4988535;28;9343;-76
2022/03/17 01:05:41;;;;;;;;;73.33;60.67;;;;;6.61;75.66;100379.53;4988523;28;9264;-77
2022/03/17 01:08:12;;;;;;;;;75.67;60.33;;;;;6.54;76.38;100375.00;5004647;28;9194;-75
2022/03/17 01:10:42;;;;;;;;;82.33;62.00;;;;;6.57;76.16;100369.91;4988720;28;9089;-76
2022/03/17 01:13:11;;;;;;;;;81.67;62.67;;;;;6.63;76.03;100373.56;4988266;28;9196;-76
2022/03/17 01:15:39;;;;;;;;;78.67;61.33;;;;;6.69;75.98;100371.97;4988357;28;9286;-75
2022/03/17 01:18:08;;;;;;;;;77.33;60.33;;;;;6.76;75.61;100371.31;4971773;28;9259;-77
2022/03/17 01:20:37;;;;;;;;;84.00;66.00;;;;;6.96;75.20;100382.25;4991677;28;9360;-76
2022/03/17 01:23:06;;;;;;;;;81.00;63.00;;;;;7.28;73.23;100377.94;4967272;28;9352;-77
2022/03/17 01:25:36;;;;;;;;;79.33;62.67;;;;;7.56;72.74;100382.09;4967400;28;9097;-75
2022/03/17 01:28:05;;;;;;;;;72.33;59.67;;;;;7.92;70.63;100381.25;4954025;28;9355;-76
2022/03/17 01:30:35;;;;;;;;;77.67;59.00;;;;;8.23;69.64;100375.88;4951091;28;9779;-77
2022/03/17 01:33:04;;;;;;;;;74.00;59.00;;;;;8.42;68.43;100379.78;4967494;28;9111;-77
2022/03/17 01:35:33;;;;;;;;;73.33;54.67;;;;;8.51;67.50;100373.06;4934850;28;8961;-77
2022/03/17 01:38:01;;;;;;;;;77.00;55.75;;;;;8.65;66.67;100375.06;4878844;29;9162;-76
2022/03/17 01:40:30;;;;;;;;;75.67;59.33;;;;;8.57;66.63;100372.31;4893865;29;8863;-76
2022/03/17 01:43:00;;;;;;;;;76.00;59.33;;;;;8.56;66.85;100376.66;4910524;29;8965;-76
2022/03/17 01:45:29;;;;;;;;;73.33;57.00;;;;;8.78;66.10;100379.69;4906657;29;8974;-75
2022/03/17 01:47:58;;;;;;;;;75.33;58.00;;;;;8.28;67.10;100377.75;4913465;29;9037;-77
2022/03/17 01:50:27;;;;;;;;;73.67;58.33;;;;;7.99;68.00;100375.31;4928940;29;9760;-75
2022/03/17 01:52:56;;;;;;;;;75.67;59.00;;;;;7.69;69.82;100378.06;4911924;29;9097;-75
2022/03/17 01:55:25;;;;;;;;;70.25;55.00;;;;;8.00;68.55;100381.44;4897459;29;8956;-75
2022/03/17 01:57:53;;;;;;;;;72.33;57.33;;;;;7.15;71.76;100383.63;4897149;29;8872;-76
2022/03/17 02:00:23;;;;;;;;;75.67;59.33;;;;;6.97;72.99;100403.00;4934752;28;9151;-75
2022/03/17 02:02:53;;;;;;;;;69.75;58.50;;;;;6.65;74.64;100407.28;4931933;28;9111;-78
2022/03/17 02:05:23;;;;;;;;;74.50;59.25;;;;;6.61;75.27;100403.72;4947626;29;8862;-76
2022/03/17 02:07:52;;;;;;;;;73.00;58.33;;;;;6.49;76.21;100399.91;4934128;28;8854;-76
2022/03/17 02:10:23;;;;;;;;;73.67;58.67;;;;;6.42;76.22;100404.00;4966504;28;9095;-76
2022/03/17 02:13:09;;;;;;;;;75.00;57.33;;;;;6.40;76.74;100410.88;4984394;28;9210;-76
2022/03/17 02:15:40;;;;;;;;;77.33;61.67;;;;;6.44;76.58;100423.94;4969870;28;9691;-77
2022/03/17 02:18:08;;;;;;;;;72.67;57.67;;;;;6.57;75.95;100422.59;4968448;28;9247;-76
2022/03/17 02:20:38;;;;;;;;;74.33;60.33;;;;;6.69;75.57;100418.63;4952436;28;9190;-76
2022/03/17 02:25:57;;;;;;;;;74.25;59.50;;;;;6.35;77.17;100412.44;4968128;28;9170;-75
2022/03/17 02:28:27;;;;;;;;;77.00;59.00;;;;;6.67;76.08;100415.97;4968280;28;8847;-77
2022/03/17 02:30:56;;;;;;;;;76.33;61.00;;;;;7.09;74.64;100420.66;4988979;28;9144;-76
2022/03/17 02:33:25;;;;;;;;;75.67;60.33;;;;;7.47;72.72;100409.53;4987615;28;9816;-76
2022/03/17 02:35:54;;;;;;;;;70.67;54.67;;;;;7.81;71.85;100406.94;4988852;28;9082;-77
2022/03/17 02:38:25;;;;;;;;;75.00;60.33;;;;;8.10;70.08;100408.50;4938574;28;9106;-77
2022/03/17 02:40:53;;;;;;;;;75.00;57.33;;;;;8.32;68.82;100415.06;4983266;28;9058;-77
2022/03/17 02:43:22;;;;;;;;;77.33;58.00;;;;;8.54;67.82;100412.13;4969344;28;8948;-75
2022/03/17 02:45:51;;;;;;;;;75.75;55.50;;;;;8.73;67.65;100420.31;4968004;28;9878;-76
2022/03/17 02:48:20;;;;;;;;;73.00;58.67;;;;;8.87;67.04;100420.59;4961726;28;8845;-76
2022/03/17 02:50:49;;;;;;;;;71.75;57.00;;;;;9.03;66.42;100422.66;4989602;28;9036;-77
2022/03/17 02:53:18;;;;;;;;;69.25;56.50;;;;;9.17;65.68;100420.34;4974775;28;8880;-75
2022/03/17 02:55:48;;;;;;;;;64.50;50.75;;;;;9.29;64.81;100407.53;4983156;28;8908;-76
2022/03/17 02:58:17;;;;;;;;;65.00;54.25;;;;;9.41;64.16;100416.44;4938978;28;8877;-77
2022/03/17 03:00:45;;;;;;;;;68.00;55.00;;;;;9.41;64.11;100419.91;4985401;28;9026;-76
2022/03/17 03:03:17;;;;;;;;;71.75;56.50;;;;;9.51;63.54;100418.38;4974745;28;9611;-75
2022/03/17 03:05:46;;;;;;;;;69.67;56.33;;;;;9.61;63.22;100422.88;4992125;28;9689;-76
2022/03/17 03:08:15;;;;;;;;;71.75;55.25;;;;;9.70;62.80;100427.38;4991338;28;8931;-78
2022/03/17 03:10:45;;;;;;;;;74.00;56.75;;;;;9.75;62.28;100428.31;4990264;28;8888;-75
2022/03/17 03:13:15;;;;;;;;;69.75;55.50;;;;;9.79;62.53;100432.72;4986242;28;8875;-76
2022/03/17 03:15:43;;;;;;;;;70.33;56.00;;;;;9.62;62.23;100431.56;4951369;28;8996;-76
2022/03/17 03:18:13;;;;;;;;;73.00;56.00;;;;;8.78;65.62;100444.69;4951041;28;9158;-77
2022/03/17 03:20:41;;;;;;;;;73.33;57.67;;;;;8.55;67.32;100445.06;4919416;28;8858;-77
2022/03/17 03:23:10;;;;;;;;;71.00;54.25;;;;;8.37;67.83;100448.13;4957913;28;8956;-76
2022/03/17 03:25:38;;;;;;;;;65.75;53.00;;;;;8.18;67.94;100449.41;4938634;28;8895;-77
2022/03/17 03:28:08;;;;;;;;;64.75;51.75;;;;;7.62;70.42;100443.69;4954199;28;8867;-76
2022/03/17 03:30:39;;;;;;;;;66.50;53.50;;;;;7.31;72.63;100457.53;4966002;28;8900;-76
2022/03/17 03:33:08;;;;;;;;;73.33;59.67;;;;;7.08;73.51;100451.72;4966367;28;8969;-77
2022/03/17 03:38:23;;;;;;;;;66.75;54.75;;;;;6.96;74.60;100458.31;4950235;28;8912;-77
2022/03/17 03:40:52;;;;;;;;;68.75;55.75;;;;;7.19;74.29;100458.97;4950415;28;9797;-75
2022/03/17 03:43:21;;;;;;;;;69.00;53.50;;;;;7.54;72.57;100453.88;4902685;28;8988;-76
2022/03/17 03:45:51;;;;;;;;;71.25;55.50;;;;;7.88;71.23;100448.63;4935386;28;8854;-75
2022/03/17 03:48:19;;;;;;;;;72.25;57.00;;;;;8.18;69.42;100454.59;4971825;28;8953;-77
2022/03/17 03:50:48;;;;;;;;;70.25;55.00;;;;;8.45;68.50;100456.13;4991685;28;8865;-75
2022/03/17 03:53:17;;;;;;;;;62.50;51.25;;;;;8.67;67.13;100452.25;4990177;28;8887;-77
2022/03/17 03:55:45;;;;;;;;;57.50;49.25;;;;;8.84;66.37;100459.53;4990310;28;8845;-77
2022/03/17 03:58:14;;;;;;;;;60.25;51.00;;;;;9.01;65.89;100452.97;4989769;28;8987;-76
2022/03/17 04:00:43;;;;;;;;;67.00;53.00;;;;;9.14;65.81;100460.16;4991105;28;8865;-75
2022/03/17 04:03:15;;;;;;;;;63.75;51.50;;;;;9.24;65.17;100452.53;4990708;28;8907;-74
2022/03/17 04:05:44;;;;;;;;;67.25;54.25;;;;;9.35;64.88;100464.03;4969519;28;8883;-79
2022/03/17 04:08:13;;;;;;;;;65.00;52.00;;;;;9.39;64.32;100465.84;4954206;28;8882;-77
2022/03/17 04:10:42;;;;;;;;;64.75;53.25;;;;;9.49;63.50;100473.00;4970374;28;8891;-75
2022/03/17 04:13:10;;;;;;;;;71.00;54.25;;;;;9.56;63.34;100459.25;4969969;28;8974;-77
2022/03/17 04:15:39;;;;;;;;;91.75;76.00;;;;;9.62;63.12;100471.50;4990691;28;8840;-76
2022/03/17 04:18:08;;;;;;;;;79.00;61.33;;;;;9.63;63.10;100467.16;4990908;28;10329;-76
2022/03/17 04:20:38;;;;;;;;;68.75;55.75;;;;;9.69;62.83;100475.97;4988562;28;9270;-78
2022/03/17 04:23:07;;;;;;;;;69.75;54.50;;;;;9.74;63.07;100482.13;4989656;28;8881;-75
2022/03/17 04:25:36;;;;;;;;;66.25;51.25;;;;;9.79;62.17;100479.59;5005508;28;8891;-76
2022/03/17 04:28:06;;;;;;;;;69.25;53.75;;;;;9.82;62.07;100479.66;4973172;28;8911;-78
2022/03/17 04:30:36;;;;;;;;;59.75;45.25;;;;;9.87;61.83;100483.25;4973130;28;8878;-76
2022/03/17 04:33:04;;;;;;;;;71.33;56.33;;;;;9.92;62.00;100486.81;4989079;28;8852;-77
2022/03/17 04:35:33;;;;;;;;;67.75;55.00;;;;;9.97;61.92;100491.22;4990164;28;9058;-77
2022/03/17 04:38:03;;;;;;;;;67.75;52.00;;;;;9.98;61.30;100488.66;4974820;28;8914;-76
2022/03/17 04:40:31;;;;;;;;;63.75;52.25;;;;;10.03;61.62;100491.31;4970842;28;8863;-76
2022/03/17 04:43:00;;;;;;;;;82.00;64.67;;;;;10.04;61.27;100501.75;4970642;28;8883;-78
2022/03/17 04:45:29;;;;;;;;;72.75;55.50;;;;;10.06;61.29;100502.66;4985465;28;9480;-75
2022/03/17 04:47:57;;;;;;;;;64.75;53.00;;;;;10.09;60.80;100502.72;5004272;28;8873;-76
2022/03/17 04:50:26;;;;;;;;;72.00;55.00;;;;;10.08;61.15;100511.38;4989824;28;8861;-76
2022/03/17 04:55:42;;;;;;;;;69.50;53.50;;;;;10.14;60.89;100515.81;4968176;28;8880;-76
2022/03/17 04:58:11;;;;;;;;;70.50;53.50;;;;;10.15;60.84;100515.84;4970328;28;8875;-75
2022/03/17 05:00:39;;;;;;;;;72.50;56.00;;;;;10.09;60.61;100522.69;4970480;28;8944;-77
2022/03/17 05:03:08;;;;;;;;;67.00;53.75;;;;;10.13;60.88;100522.78;4952074;28;8937;-75
2022/03/17 05:05:38;;;;;;;;;69.00;54.25;;;;;10.15;60.87;100522.78;4983349;28;8876;-76
2022/03/17 05:08:07;;;;;;;;;65.50;54.50;;;;;10.19;60.33;100522.00;4972456;28;8993;-75
2022/03/17 05:10:37;;;;;;;;;66.00;53.25;;;;;10.21;60.04;100524.59;4923254;28;8849;-75
2022/03/17 05:13:08;;;;;;;;;67.67;55.00;;;;;10.24;60.62;100535.09;4938587;28;8849;-77
2022/03/17 05:15:37;;;;;;;;;73.67;56.00;;;;;10.20;60.38;100533.28;4987796;28;8956;-77
2022/03/17 05:18:07;;;;;;;;;71.25;55.50;;;;;10.21;60.15;100540.25;4955684;28;8937;-77
2022/03/17 05:20:36;;;;;;;;;72.33;59.33;;;;;10.16;60.01;100537.56;4988154;28;8865;-77
2022/03/17 05:23:05;;;;;;;;;73.33;58.00;;;;;10.12;60.45;100540.97;4988147;28;9147;-75
2022/03/17 05:25:34;;;;;;;;;76.67;60.00;;;;;10.08;60.58;100549.59;4970765;28;9069;-76
2022/03/17 05:28:03;;;;;;;;;90.25;74.25;;;;;9.95;61.07;100551.97;4983844;28;9201;-76
2022/03/17 05:30:33;;;;;;;;;82.67;63.67;;;;;9.76;61.57;100548.16;4968647;28;9914;-76
2022/03/17 05:33:02;;;;;;;;;79.00;63.00;;;;;9.75;61.79;100559.44;4978897;28;9438;-76
2022/03/17 05:35:32;;;;;;;;;79.00;60.00;;;;;9.57;62.66;100559.94;4988039;28;9281;-75
2022/03/17 05:38:01;;;;;;;;;80.00;62.00;;;;;9.57;62.95;100554.72;4989037;28;9338;-76
2022/03/17 05:40:30;;;;;;;;;77.33;61.00;;;;;9.56;62.84;100565.13;4987908;28;9354;-75
2022/03/17 05:43:02;;;;;;;;;81.25;63.25;;;;;9.60;62.22;100573.88;4986796;28;9142;-76
2022/03/17 05:45:31;;;;;;;;;81.67;61.67;;;;;9.62;62.72;100574.78;4980947;28;9494;-75
2022/03/17 05:48:04;;;;;;;;;86.50;66.50;;;;;9.57;62.43;100570.34;4983950;28;9336;-75
2022/03/17 05:50:37;;;;;;;;;70.33;59.00;;;;;9.58;62.59;100581.66;4983935;28;9571;-76
2022/03/17 05:53:06;;;;;;;;;83.67;66.00;;;;;9.63;62.58;100581.75;4947406;28;9371;-77
2022/03/17 05:55:36;;;;;;;;;32.67;24.67;;;;;9.56;62.58;100581.63;4977147;28;9508;-77
2022/03/17 05:58:06;;;;;;;;;74.67;59.67;;;;;9.55;63.11;100587.69;4966758;28;9422;-76
2022/03/17 06:00:36;;;;;;;;;70.00;55.33;;;;;9.49;62.77;100581.44;4966939;28;9116;-75
2022/03/17 06:03:06;;;;;;;;;80.33;62.33;;;;;9.57;62.99;100585.97;4953107;28;9288;-76
2022/03/17 06:05:35;;;;;;;;;70.67;56.00;;;;;9.62;62.15;100585.19;4931620;29;9359;-78
2022/03/17 06:08:10;;;;;;;;;81.00;62.33;;;;;9.62;63.02;100579.97;4951547;28;9446;-76
2022/03/17 06:10:40;;;;;;;;;77.00;61.00;;;;;9.54;62.31;100575.50;4935483;28;9398;-75
2022/03/17 06:13:08;;;;;;;;;76.00;59.00;;;;;9.41;62.58;100573.50;4904286;28;9206;-75
2022/03/17 06:15:37;;;;;;;;;78.67;61.00;;;;;9.38;62.91;100573.44;4967221;28;9200;-76
2022/03/17 06:18:07;;;;;;;;;76.67;58.00;;;;;9.38;63.54;100581.25;4967012;28;9194;-77
2022/03/17 06:20:37;;;;;;;;;76.67;60.33;;;;;9.42;63.23;100577.88;4904228;29;9250;-77
2022/03/17 06:23:08;;;;;;;;;77.67;58.00;;;;;9.53;63.29;100583.31;4947192;28;9889;-75
2022/03/17 06:25:38;;;;;;;;;77.67;62.33;;;;;9.53;62.88;100583.31;4942907;28;8936;-73
2022/03/17 06:28:09;;;;;;;;;78.00;60.67;;;;;9.50;62.73;100580.63;4991816;28;9175;-71
2022/03/17 06:30:38;;;;;;;;;78.33;59.00;;;;;9.53;62.91;100586.78;4990679;28;9113;-74
2022/03/17 06:33:09;;;;;;;;;73.33;58.67;;;;;9.56;62.85;100583.34;4991743;28;9192;-73
2022/03/17 06:35:37;;;;;;;;;79.67;62.67;;;;;9.64;62.86;100580.88;4990338;28;9152;-74
2022/03/17 06:38:08;;;;;;;;;85.67;64.00;;;;;9.71;62.53;100587.97;4941658;28;9350;-76
2022/03/17 06:40:37;;;;;;;;;81.67;64.67;;;;;9.70;62.56;100584.50;4991779;28;9417;-75
2022/03/17 06:43:07;;;;;;;;;81.33;62.67;;;;;9.62;63.04;100596.50;4991864;28;9347;-76
2022/03/17 06:45:35;;;;;;;;;79.00;61.00;;;;;9.51;63.31;100600.63;4991858;28;9354;-74
2022/03/17 06:48:05;;;;;;;;;72.33;59.33;;;;;9.49;64.11;100595.38;4991642;28;9190;-75
2022/03/17 06:50:35;;;;;;;;;76.67;60.33;;;;;9.45;64.49;100608.28;4991930;28;9050;-73
2022/03/17 06:53:03;;;;;;;;;78.33;61.00;;;;;9.35;64.63;100605.47;4991773;28;9462;-74
2022/03/17 06:55:33;;;;;;;;;79.00;61.00;;;;;9.30;65.30;100614.94;5006014;28;9104;-75
2022/03/17 06:58:03;;;;;;;;;80.67;63.00;;;;;9.16;65.71;100613.72;4989940;28;9274;-75
2022/03/17 07:00:31;;;;;;;;;79.00;61.00;;;;;9.13;65.91;100626.66;4973725;28;9404;-74
2022/03/17 07:03:00;;;;;;;;;80.00;60.00;;;;;9.13;66.34;100629.25;4973042;28;9266;-75
2022/03/17 07:05:29;;;;;;;;;76.00;59.00;;;;;9.20;66.09;100635.50;4990192;28;9115;-74
2022/03/17 07:07:59;;;;;;;;;72.33;57.33;;;;;9.12;66.53;100631.00;4990343;28;9186;-72
2022/03/17 07:10:33;;;;;;;;;74.00;58.67;;;;;9.22;66.07;100641.63;4985526;28;9048;-66
2022/03/17 07:13:02;;;;;;;;;69.50;56.75;;;;;9.25;65.77;100645.19;4944806;28;8966;-73
2022/03/17 07:15:30;;;;;;;;;67.67;55.00;;;;;9.32;65.25;100646.22;4990537;28;8857;-74
2022/03/17 07:17:59;;;;;;;;;68.00;54.67;;;;;9.39;64.76;100642.00;4989743;28;8981;-72
2022/03/17 07:20:27;;;;;;;;;68.00;54.75;;;;;9.42;64.50;100655.09;4990227;28;8975;-72
2022/03/17 07:22:56;;;;;;;;;61.25;50.25;;;;;9.49;64.33;100650.06;4989980;28;8853;-72
2022/03/17 07:25:27;;;;;;;;;69.50;56.00;;;;;9.54;64.08;100644.94;4989214;28;8853;-73
2022/03/17 07:27:57;;;;;;;;;65.25;54.50;;;;;9.57;64.02;100643.28;4991045;28;8868;-71
2022/03/17 07:30:26;;;;;;;;;67.25;55.00;;;;;9.59;64.21;100645.03;4990900;28;8915;-73
2022/03/17 07:32:55;;;;;;;;;71.25;57.25;;;;;9.56;64.15;100648.44;4941195;28;8931;-72
2022/03/17 07:35:25;;;;;;;;;69.00;55.50;;;;;9.55;64.22;100652.78;4990697;28;8884;-72
2022/03/17 07:37:56;;;;;;;;;59.67;49.67;;;;;9.46;64.96;100646.50;4990219;28;8885;-73
2022/03/17 07:40:26;;;;;;;;;72.25;57.50;;;;;9.46;65.27;100649.97;4990607;28;8946;-73
2022/03/17 07:42:55;;;;;;;;;69.50;53.75;;;;;9.52;64.60;100649.22;4990811;28;8876;-73
2022/03/17 07:45:26;;;;;;;;;67.00;56.00;;;;;9.51;64.83;100656.16;4989494;28;8970;-72
2022/03/17 07:48:14;;;;;;;;;71.50;55.00;;;;;9.50;64.74;100653.53;4990408;28;8962;-73
2022/03/17 07:50:51;;;;;;;;;66.00;54.50;;;;;9.51;64.80;100658.78;4989218;28;8884;-74
2022/03/17 07:53:20;;;;;;;;;73.00;55.00;;;;;9.60;64.86;100662.41;4972391;28;8962;-71
2022/03/17 07:55:54;;;;;;;;;67.75;54.50;;;;;9.60;64.79;100662.41;4990668;28;9758;-75
2022/03/17 07:58:23;;;;;;;;;67.25;52.50;;;;;9.65;64.24;100663.41;4989669;28;8903;-73
2022/03/17 08:00:53;;;;;;;;;64.00;52.25;;;;;9.68;64.48;100666.06;4991151;28;8864;-73
2022/03/17 08:03:22;;;;;;;;;63.75;52.75;;;;;9.61;64.08;100659.84;4989583;28;8854;-70
2022/03/17 08:05:52;;;;;;;;;64.25;50.00;;;;;9.38;64.80;100663.69;4990940;28;8893;-72
2022/03/17 08:08:21;;;;;;;;;66.25;54.50;;;;;9.45;63.92;100673.38;4940896;28;8956;-72
2022/03/17 08:10:51;;;;;;;;;60.25;49.25;;;;;9.30;64.75;100679.09;4991161;28;8865;-73
2022/03/17 08:13:22;;;;;;;;;61.00;50.50;;;;;9.33;64.05;100681.78;4990694;28;8864;-71
2022/03/17 08:15:50;;;;;;;;;55.00;46.50;;;;;9.28;64.20;100678.19;4940312;28;8892;-72
2022/03/17 08:18:19;;;;;;;;;57.75;45.00;;;;;9.30;64.42;100680.00;4956400;28;8872;-72
2022/03/17 08:20:47;;;;;;;;;63.25;48.25;;;;;9.40;64.32;100681.09;4990195;28;8852;-72
2022/03/17 08:23:21;;;;;;;;;49.00;41.00;;;;;9.45;63.31;100684.69;4989714;28;8884;-72
2022/03/17 08:25:52;;;;;;;;;53.00;45.25;;;;;9.50;62.47;100692.59;4990156;28;8864;-70
2022/03/17 08:28:20;;;;;;;;;52.50;44.00;;;;;9.42;62.47;100684.59;4990297;28;8857;-72
2022/03/17 08:30:51;;;;;;;;;57.00;45.50;;;;;9.51;62.22;100691.75;4990064;28;8906;-72
2022/03/17 08:33:19;;;;;;;;;56.00;43.25;;;;;9.58;62.05;100693.63;4989983;28;8849;-71
2022/03/17 08:35:48;;;;;;;;;49.25;42.00;;;;;9.60;61.76;100691.94;4971528;28;8848;-71
2022/03/17 08:38:17;;;;;;;;;54.00;43.75;;;;;9.56;61.38;100693.63;4971405;28;8853;-69
2022/03/17 08:40:46;;;;;;;;;47.25;41.00;;;;;9.58;61.83;100693.63;4989581;28;8864;-72
2022/03/17 08:43:16;;;;;;;;;55.75;42.50;;;;;9.55;61.58;100693.56;4989464;28;8849;-73
2022/03/17 08:51:19;;;;;;;;;41.00;39.25;;;;;9.70;62.19;100709.53;4989077;28;8849;-72
2022/03/17 08:53:48;;;;;;;;;43.75;39.25;;;;;9.78;61.64;100712.28;4989386;28;8868;-71
2022/03/17 08:56:17;;;;;;;;;47.00;40.00;;;;;9.78;61.75;100714.91;4989731;28;8957;-72
2022/03/17 08:58:47;;;;;;;;;47.25;41.00;;;;;9.84;61.54;100706.34;4989508;28;8972;-72
2022/03/17 09:01:17;;;;;;;;;44.25;39.75;;;;;9.91;61.51;100713.44;4989408;28;8841;-72
2022/03/17 09:03:45;;;;;;;;;44.25;38.75;;;;;9.81;61.58;100709.78;4988072;28;8857;-72
2022/03/17 09:06:15;;;;;;;;;41.50;36.75;;;;;9.60;61.79;100704.94;4987837;28;8876;-72
2022/03/17 09:08:43;;;;;;;;;38.75;37.75;;;;;9.69;61.77;100710.34;4989439;28;9040;-72
2022/03/17 09:11:13;;;;;;;;;41.00;33.50;;;;;9.68;61.68;100705.16;4989353;28;8845;-70
2022/03/17 09:13:42;;;;;;;;;34.50;32.50;;;;;9.73;61.45;100717.41;4989717;28;8849;-72
2022/03/17 09:16:12;;;;;;;;;36.00;35.25;;;;;9.83;61.06;100715.88;4955177;28;8860;-71
2022/03/17 09:18:42;;;;;;;;;31.00;29.00;;;;;9.81;60.81;100725.41;4988950;28;9611;-71
2022/03/17 09:21:13;;;;;;;;;30.75;28.75;;;;;9.91;60.76;100722.13;4987501;28;8879;-73
2022/03/17 09:23:42;;;;;;;;;32.50;28.25;;;;;9.93;59.64;100714.34;4989055;28;8864;-73
2022/03/17 09:26:11;;;;;;;;;28.25;26.00;;;;;9.91;59.13;100721.25;4986428;28;8951;-71
2022/03/17 09:28:40;;;;;;;;;24.75;23.75;;;;;10.05;58.58;100717.19;4970327;28;8884;-73
2022/03/17 09:31:08;;;;;;;;;31.50;27.00;;;;;10.14;58.43;100714.78;4922783;28;9670;-73
2022/03/17 09:33:39;;;;;;;;;30.25;29.50;;;;;10.08;57.91;100714.66;4986134;28;8872;-71
2022/03/17 09:36:10;;;;;;;;;33.25;32.50;;;;;10.14;57.71;100713.91;4986413;28;8853;-72
2022/03/17 09:38:39;;;;;;;;;37.00;33.00;;;;;10.14;57.52;100709.56;4983949;28;8900;-74
2022/03/17 09:41:24;;;;;;;;;36.00;33.25;;;;;10.25;57.46;100716.75;4903789;28;8874;-72
2022/03/17 09:43:53;;;;;;;;;31.25;27.50;;;;;10.44;56.20;100711.06;4950711;28;8886;-70
2022/03/17 09:46:24;;;;;;;;;32.00;31.75;;;;;10.53;55.88;100712.97;4967040;28;8905;-72
2022/03/17 09:48:54;;;;;;;;;30.50;30.50;;;;;10.60;55.74;100725.25;4966751;28;8875;-73
2022/03/17 09:51:25;;;;;;;;;39.75;36.00;;;;;10.72;55.05;100724.59;4966982;28;8938;-72
2022/03/17 09:53:59;;;;;;;;;39.75;35.75;;;;;10.89;54.29;100732.72;4966649;28;9028;-73
2022/03/17 09:56:29;;;;;;;;;34.75;34.00;;;;;10.83;54.01;100735.22;4966966;28;8859;-73
2022/03/17 09:58:59;;;;;;;;;40.25;35.00;;;;;10.92;54.20;100733.63;4968919;28;8870;-72
2022/03/17 10:01:27;;;;;;;;;41.25;36.50;;;;;10.99;53.48;100733.75;4967652;28;8870;-74
2022/03/17 10:04:02;;;;;;;;;36.25;32.75;;;;;11.19;52.65;100737.59;4969223;28;8867;-72
2022/03/17 10:06:31;;;;;;;;;34.50;34.50;;;;;11.25;52.96;100739.41;4969094;28;8874;-73
2022/03/17 10:09:00;;;;;;;;;35.75;35.00;;;;;11.28;52.01;100745.53;4969001;28;8867;-72
2022/03/17 10:11:31;;;;;;;;;32.75;32.25;;;;;11.24;52.32;100743.75;4968689;28;8875;-72
2022/03/17 10:14:03;;;;;;;;;35.25;34.75;;;;;11.31;52.28;100745.59;4979137;28;8880;-72
2022/03/17 10:16:33;;;;;;;;;39.00;36.25;;;;;11.46;51.90;100749.31;4988614;28;8841;-71
2022/03/17 10:19:05;;;;;;;;;34.00;32.25;;;;;11.29;51.68;100747.31;4988917;28;8955;-69
2022/03/17 10:21:35;;;;;;;;;37.00;35.00;;;;;11.36;52.16;100744.78;4988608;28;8860;-73
2022/03/17 10:24:06;;;;;;;;;37.50;36.00;;;;;11.48;52.46;100747.59;4987130;28;8857;-71
2022/03/17 10:26:38;;;;;;;;;34.75;33.00;;;;;11.52;51.64;100747.66;4988323;28;8857;-69
2022/03/17 10:29:12;;;;;;;;;31.25;30.50;;;;;11.43;52.20;100744.91;4954259;28;9109;-72
2022/03/17 10:32:00;;;;;;;;;36.50;31.25;;;;;11.38;52.85;100751.81;4987192;28;8857;-72
2022/03/17 10:34:33;;;;;;;;;34.75;32.25;;;;;11.37;52.66;100749.16;4988304;28;8861;-71
2022/03/17 10:37:07;;;;;;;;;35.50;34.00;;;;;11.41;52.07;100749.22;4988307;28;8896;-72
2022/03/17 10:39:37;;;;;;;;;32.75;31.50;;;;;11.46;52.04;100752.78;4988476;28;8971;-71
2022/03/17 10:42:13;;;;;;;;;37.00;36.25;;;;;11.38;52.62;100750.91;4986779;28;8848;-73
2022/03/17 10:44:45;;;;;;;;;37.50;33.75;;;;;11.47;52.33;100753.66;4988600;28;8848;-72
2022/03/17 10:47:14;;;;;;;;;38.25;36.00;;;;;11.44;52.30;100758.88;4986404;28;9794;-73
2022/03/17 10:52:51;;;;;;;;;38.00;33.75;;;;;11.58;52.28;100757.31;5164116;27;14187;-72
2022/03/17 10:55:22;;;;;;;;;34.25;32.75;;;;;11.61;52.80;100751.28;5146811;27;8973;-72
2022/03/17 10:57:54;;;;;;;;;37.00;32.50;;;;;11.74;51.05;100754.94;5111254;27;8871;-71
2022/03/17 11:00:26;;;;;;;;;41.25;36.00;;;;;11.87;50.99;100759.47;5111237;27;8843;-73
2022/03/17 11:02:57;;;;;;;;;42.00;39.00;;;;;12.01;51.36;100757.09;5146165;27;9671;-73
2022/03/17 11:05:28;;;;;;;;;35.50;34.50;;;;;11.89;50.98;100763.91;5093124;27;8927;-70
2022/03/17 11:07:59;;;;;;;;;39.25;37.00;;;;;11.88;51.07;100766.47;5140123;27;9081;-72
2022/03/17 11:10:27;;;;;;;;;36.50;35.00;;;;;11.83;50.97;100755.97;5089895;27;8834;-75
2022/03/17 11:12:56;;;;;;;;;38.00;36.75;;;;;11.94;50.94;100756.13;5125809;27;8864;-72
2022/03/17 11:15:27;;;;;;;;;41.75;37.50;;;;;11.97;50.95;100756.16;5085515;28;8834;-72
2022/03/17 11:18:03;;;;;;;;;37.00;35.75;;;;;11.83;51.31;100745.50;5102520;28;9082;-71
2022/03/17 11:20:33;;;;;;;;;37.00;36.00;;;;;11.88;50.36;100750.78;5068680;28;8967;-71
2022/03/17 11:23:35;;;;;;;;;40.25;35.50;;;;;11.82;50.54;100742.88;5085537;28;8869;-74
2022/03/17 11:26:04;;;;;;;;;37.25;35.25;;;;;11.79;50.68;100746.28;5022100;28;8862;-70
2022/03/17 11:28:34;;;;;;;;;34.25;32.25;;;;;11.80;50.61;100742.84;5027564;28;8848;-73
2022/03/17 11:31:05;;;;;;;;;31.50;30.25;;;;;11.76;49.83;100737.53;5025187;28;8872;-72
2022/03/17 11:33:37;;;;;;;;;35.00;34.00;;;;;11.86;50.58;100729.84;5041983;28;8949;-73
2022/03/17 11:36:16;;;;;;;;;31.00;28.50;;;;;11.76;50.67;100729.69;5041349;28;8907;-70
2022/03/17 11:39:02;;;;;;;;;34.25;33.00;;;;;11.69;50.90;100734.84;5041605;28;8847;-72
2022/03/17 11:41:32;;;;;;;;;32.25;32.25;;;;;11.79;49.65;100729.75;5041501;28;8969;-72
2022/03/17 11:44:03;;;;;;;;;28.75;27.00;;;;;11.85;50.38;100740.28;4992199;28;8925;-70
2022/03/17 11:46:41;;;;;;;;;30.50;30.50;;;;;11.89;49.81;100729.03;5050976;28;8850;-73
2022/03/17 11:49:24;;;;;;;;;35.00;32.00;;;;;11.86;50.86;100736.81;5061547;28;9559;-71
2022/03/17 11:51:55;;;;;;;;;36.00;34.50;;;;;11.73;50.02;100738.38;5044851;28;8977;-74